createdAt,value
2023-02-23T00:00:29.531Z,101.20
2023-02-23T00:03:01.074Z,94.65
2023-02-23T00:05:30.883Z,97.28
2023-02-23T00:07:59.116Z,102.95
2023-02-23T00:10:30.489Z,101.28
2023-02-23T00:12:59.294Z,101.40
2023-02-23T00:15:29.913Z,98.93
2023-02-23T00:17:58.792Z,99.38
2023-02-23T00:20:27.550Z,95.25
2023-02-23T00:22:56.090Z,103.35
2023-02-23T00:25:24.393Z,106.33
2023-02-23T00:27:52.779Z,112.27
2023-02-23T00:30:21.259Z,104.60
2023-02-23T00:32:52.494Z,106.45
2023-02-23T00:35:20.195Z,103.10
2023-02-23T00:37:49.722Z,111.38
2023-02-23T00:40:21.422Z,111.68
2023-02-23T00:42:49.876Z,103.32
2023-02-23T00:45:17.608Z,113.90
2023-02-23T00:47:48.450Z,108.30
2023-02-23T00:50:19.356Z,107.60
2023-02-23T00:52:46.975Z,115.25
2023-02-23T00:55:16.199Z,110.47
2023-02-23T00:57:43.915Z,101.85
2023-02-23T01:00:18.733Z,102.88
2023-02-23T01:02:46.406Z,123.45
2023-02-23T01:05:14.102Z,117.75
2023-02-23T01:07:46.540Z,114.47
2023-02-23T01:10:20.290Z,111.90
2023-02-23T01:12:49.673Z,114.38
2023-02-23T01:15:18.533Z,109.13
2023-02-23T01:17:46.995Z,111.47
2023-02-23T01:20:18.792Z,115.43
2023-02-23T01:22:50.107Z,118.53
2023-02-23T01:25:18.678Z,119.40
2023-02-23T01:27:46.669Z,111.80
2023-02-23T01:30:16.466Z,124.80
2023-02-23T01:32:44.123Z,119.78
2023-02-23T01:35:13.858Z,117.97
2023-02-23T01:37:43.481Z,111.22
2023-02-23T01:40:16.697Z,119.73
2023-02-23T01:42:46.148Z,107.63
2023-02-23T01:45:24.751Z,104.88
2023-02-23T01:47:54.549Z,85.40
2023-02-23T01:50:22.602Z,97.03
2023-02-23T01:52:52.318Z,94.78
2023-02-23T01:55:24.427Z,83.32
2023-02-23T01:57:54.935Z,85.82
2023-02-23T02:00:26.106Z,88.50
2023-02-23T02:02:53.911Z,89.97
2023-02-23T02:05:21.946Z,95.85
2023-02-23T02:07:58.450Z,91.20
2023-02-23T02:10:44.160Z,83.82
2023-02-23T02:13:15.729Z,96.20
2023-02-23T02:15:55.108Z,81.78
2023-02-23T02:18:30.690Z,86.70
2023-02-23T02:21:19.055Z,85.10
2023-02-23T02:24:13.394Z,75.35
2023-02-23T02:26:53.626Z,83.60
2023-02-23T02:29:48.070Z,81.60
2023-02-23T02:32:47.398Z,87.03
2023-02-23T02:35:38.103Z,88.90
2023-02-23T02:38:23.377Z,74.15
2023-02-23T02:40:54.821Z,76.63
2023-02-23T02:43:27.997Z,86.20
2023-02-23T02:45:58.114Z,94.57
2023-02-23T02:48:33.218Z,93.35
2023-02-23T02:51:09.440Z,99.55
2023-02-23T02:53:43.029Z,93.13
2023-02-23T02:56:11.164Z,87.40
2023-02-23T02:58:39.384Z,106.57
2023-02-23T03:01:26.231Z,102.22
2023-02-23T03:04:11.625Z,102.50
2023-02-23T03:07:03.969Z,107.57
2023-02-23T03:09:55.100Z,101.55
2023-02-23T03:12:46.024Z,110.95
2023-02-23T03:15:41.187Z,111.10
2023-02-23T03:18:40.840Z,118.70
2023-02-23T03:21:32.911Z,115.30
2023-02-23T03:24:22.956Z,111.18
2023-02-23T03:27:12.494Z,119.83
2023-02-23T03:30:01.303Z,120.30
2023-02-23T03:32:49.160Z,105.65
2023-02-23T03:35:40.094Z,87.18
2023-02-23T03:38:28.925Z,93.93
2023-02-23T03:41:14.892Z,91.28
2023-02-23T03:44:06.048Z,87.82
2023-02-23T03:46:51.857Z,102.55
2023-02-23T03:49:37.716Z,106.68
2023-02-23T03:52:27.687Z,92.72
2023-02-23T03:55:15.586Z,97.82
2023-02-23T03:58:02.392Z,98.65
2023-02-23T04:00:51.970Z,108.15
2023-02-23T04:03:37.941Z,102.78
2023-02-23T04:06:27.063Z,128.38
2023-02-23T04:09:12.877Z,111.43
2023-02-23T04:12:01.420Z,125.10
2023-02-23T04:14:31.689Z,116.60
2023-02-23T04:16:59.679Z,111.53
2023-02-23T04:19:28.239Z,127.00
2023-02-23T04:21:55.894Z,133.30
2023-02-23T04:24:23.544Z,127.40
2023-02-23T04:26:51.210Z,131.18
2023-02-23T04:29:18.807Z,135.98
2023-02-23T04:31:47.369Z,133.18
2023-02-23T04:34:16.447Z,146.55
2023-02-23T04:36:44.065Z,134.48
2023-02-23T04:39:11.921Z,131.07
2023-02-23T04:41:39.607Z,143.15
2023-02-23T04:44:07.351Z,140.25
2023-02-23T04:46:35.113Z,126.03
2023-02-23T04:49:03.807Z,133.02
2023-02-23T04:51:34.003Z,143.63
2023-02-23T04:54:02.392Z,140.68
2023-02-23T04:56:30.181Z,149.70
2023-02-23T04:58:57.979Z,134.95
2023-02-23T05:01:25.770Z,139.88
2023-02-23T05:03:53.535Z,136.63
2023-02-23T05:06:21.194Z,149.73
2023-02-23T05:08:50.223Z,138.73
2023-02-23T05:11:18.216Z,155.18
2023-02-23T05:13:46.009Z,125.43
2023-02-23T05:16:13.876Z,155.32
2023-02-23T05:18:41.605Z,124.60
2023-02-23T05:21:09.852Z,139.05
2023-02-23T05:23:38.439Z,149.82
2023-02-23T05:26:10.046Z,148.05
2023-02-23T05:28:39.512Z,145.77
2023-02-23T05:31:07.730Z,161.00
2023-02-23T05:33:42.301Z,141.45
2023-02-23T05:36:11.830Z,145.02
2023-02-23T05:38:39.749Z,147.73
2023-02-23T05:41:09.627Z,149.95
2023-02-23T05:43:37.252Z,155.98
2023-02-23T05:46:08.066Z,162.23
2023-02-23T05:48:36.131Z,170.23
2023-02-23T05:51:04.351Z,165.75
2023-02-23T05:53:32.467Z,175.23
2023-02-23T05:56:00.143Z,183.83
2023-02-23T05:58:29.435Z,177.18
2023-02-23T06:00:57.166Z,189.40
2023-02-23T06:03:24.865Z,190.63
2023-02-23T06:05:53.092Z,179.93
2023-02-23T06:08:20.920Z,203.90
2023-02-23T06:10:48.737Z,204.23
2023-02-23T06:13:16.771Z,208.10
2023-02-23T06:15:46.047Z,213.00
2023-02-23T06:18:14.068Z,223.90
2023-02-23T06:20:41.751Z,216.50
2023-02-23T06:23:09.645Z,211.00
2023-02-23T06:25:37.260Z,208.25
2023-02-23T06:28:05.675Z,206.23
2023-02-23T06:30:33.319Z,213.73
2023-02-23T06:33:02.766Z,206.00
2023-02-23T06:35:30.510Z,202.90
2023-02-23T06:37:58.122Z,207.57
2023-02-23T06:40:25.765Z,225.40
2023-02-23T06:42:53.445Z,217.00
2023-02-23T06:45:21.079Z,215.27
2023-02-23T06:47:49.042Z,237.18
2023-02-23T06:50:18.808Z,227.93
2023-02-23T06:52:46.654Z,230.55
2023-02-23T06:55:14.439Z,223.23
2023-02-23T06:57:42.685Z,230.23
2023-02-23T07:00:12.672Z,222.93
2023-02-23T07:02:40.353Z,227.02
2023-02-23T07:05:08.695Z,234.60
2023-02-23T07:07:37.948Z,211.75
2023-02-23T07:10:06.843Z,210.30
2023-02-23T07:12:34.600Z,216.07
2023-02-23T07:15:02.214Z,218.10
2023-02-23T07:17:29.805Z,222.60
2023-02-23T07:19:57.557Z,214.02
2023-02-23T07:22:30.301Z,200.98
2023-02-23T07:24:59.371Z,209.02
2023-02-23T07:27:27.701Z,214.50
2023-02-23T07:29:55.498Z,210.43
2023-02-23T07:32:23.295Z,208.50
2023-02-23T07:34:53.691Z,204.23
2023-02-23T07:37:21.976Z,197.10
2023-02-23T07:39:49.681Z,188.90
2023-02-23T07:42:18.757Z,180.03
2023-02-23T07:44:46.446Z,195.50
2023-02-23T07:47:14.160Z,193.20
2023-02-23T07:49:42.271Z,196.25
2023-02-23T07:52:09.952Z,186.85
2023-02-23T07:54:37.674Z,188.97
2023-02-23T07:57:05.382Z,170.52
2023-02-23T07:59:34.653Z,178.27
2023-02-23T08:02:02.420Z,172.27
2023-02-23T08:04:30.130Z,165.02
2023-02-23T08:06:57.831Z,165.40
2023-02-23T08:09:25.691Z,170.77
2023-02-23T08:11:53.381Z,167.50
2023-02-23T08:14:23.738Z,159.38
2023-02-23T08:16:52.898Z,150.25
2023-02-23T08:19:22.845Z,155.98
2023-02-23T08:21:51.070Z,168.20
2023-02-23T08:24:18.920Z,167.10
2023-02-23T08:26:46.632Z,159.27
2023-02-23T08:29:14.361Z,165.35
2023-02-23T08:31:42.236Z,168.40
2023-02-23T08:34:11.595Z,168.85
2023-02-23T08:36:40.258Z,158.77
2023-02-23T08:39:10.062Z,151.20
2023-02-23T08:41:37.761Z,139.68
2023-02-23T08:44:05.484Z,160.05
2023-02-23T08:46:33.622Z,143.75
2023-02-23T08:49:01.419Z,155.85
2023-02-23T08:51:30.616Z,152.77
2023-02-23T08:53:58.252Z,144.53
2023-02-23T08:56:27.054Z,148.32
2023-02-23T08:58:55.009Z,152.70
2023-02-23T09:01:23.118Z,169.43
2023-02-23T09:03:51.378Z,149.20
2023-02-23T09:06:21.371Z,144.23
2023-02-23T09:08:50.768Z,144.45
2023-02-23T09:11:18.903Z,134.93
2023-02-23T09:13:47.000Z,153.05
2023-02-23T09:16:15.007Z,146.50
2023-02-23T09:18:43.406Z,137.40
2023-02-23T09:21:18.887Z,127.30
2023-02-23T09:23:48.243Z,138.55
2023-02-23T09:26:18.892Z,142.63
2023-02-23T09:28:47.107Z,131.73
2023-02-23T09:31:16.526Z,135.23
2023-02-23T09:33:44.490Z,140.40
2023-02-23T09:36:16.269Z,128.98
2023-02-23T09:38:44.634Z,132.05
2023-02-23T09:41:44.070Z,124.22
2023-02-23T09:44:17.505Z,119.10
2023-02-23T09:46:51.677Z,132.38
2023-02-23T09:49:21.740Z,132.15
2023-02-23T09:51:55.378Z,117.88
2023-02-23T09:54:24.183Z,131.67
2023-02-23T09:56:56.326Z,120.75
2023-02-23T09:59:25.210Z,111.47
2023-02-23T10:02:00.311Z,121.50
2023-02-23T10:04:30.325Z,122.93
2023-02-23T10:07:01.375Z,122.68
2023-02-23T10:09:45.625Z,116.00
2023-02-23T10:12:19.799Z,120.78
2023-02-23T10:15:00.289Z,120.63
2023-02-23T10:17:37.588Z,119.05
2023-02-23T10:20:15.071Z,111.25
2023-02-23T10:22:43.578Z,119.70
2023-02-23T10:25:14.055Z,102.05
2023-02-23T10:27:45.426Z,102.90
2023-02-23T10:30:20.358Z,102.65
2023-02-23T10:32:52.922Z,111.47
2023-02-23T10:35:22.450Z,99.63
2023-02-23T10:37:51.875Z,91.85
2023-02-23T10:40:22.980Z,93.78
2023-02-23T10:42:52.816Z,87.97
2023-02-23T10:45:24.712Z,89.10
2023-02-23T10:47:56.537Z,85.85
2023-02-23T10:50:27.601Z,73.35
2023-02-23T10:52:58.204Z,77.45
2023-02-23T10:55:27.878Z,88.07
2023-02-23T10:58:17.056Z,69.13
2023-02-23T11:00:53.276Z,79.68
2023-02-23T11:03:26.491Z,70.40
2023-02-23T11:05:59.781Z,74.93
2023-02-23T11:08:30.509Z,72.20
2023-02-23T11:11:00.787Z,71.00
2023-02-23T11:13:34.794Z,71.20
2023-02-23T11:16:04.513Z,61.83
2023-02-23T11:18:32.505Z,62.67
2023-02-23T11:21:00.276Z,64.90
2023-02-23T11:23:30.195Z,64.13
2023-02-23T11:26:01.274Z,62.70
2023-02-23T11:28:32.887Z,61.03
2023-02-23T11:31:03.938Z,65.30
2023-02-23T11:33:36.123Z,63.72
2023-02-23T11:36:19.648Z,68.13
2023-02-23T11:38:47.999Z,64.68
2023-02-23T11:41:22.001Z,72.60
2023-02-23T11:43:52.825Z,64.07
2023-02-23T11:46:22.858Z,64.77
2023-02-23T11:48:54.142Z,56.70
2023-02-23T11:51:26.576Z,59.42
2023-02-23T11:53:54.371Z,54.30
2023-02-23T11:56:25.548Z,51.45
2023-02-23T11:58:57.685Z,56.20
2023-02-23T12:01:36.857Z,48.75
2023-02-23T12:04:04.978Z,51.58
2023-02-23T12:06:34.394Z,49.83
2023-02-23T12:09:07.920Z,49.60
2023-02-23T12:11:39.528Z,44.63
2023-02-23T12:14:13.582Z,41.00
2023-02-23T12:16:44.766Z,41.47
2023-02-23T12:19:24.074Z,40.63
2023-02-23T12:21:57.574Z,43.28
2023-02-23T12:24:40.220Z,45.58
2023-02-23T12:27:13.669Z,49.03
2023-02-23T12:29:56.752Z,43.03
2023-02-23T12:32:27.926Z,37.05
2023-02-23T12:34:57.804Z,40.60
2023-02-23T12:37:37.072Z,46.42
2023-02-23T12:40:13.690Z,40.25
2023-02-23T12:42:46.649Z,35.40
2023-02-23T12:45:21.695Z,42.87
2023-02-23T12:47:55.036Z,40.55
2023-02-23T12:50:28.527Z,42.28
2023-02-23T12:52:58.749Z,43.43
2023-02-23T12:55:38.394Z,49.07
2023-02-23T12:58:09.915Z,47.40
2023-02-23T13:00:44.505Z,50.75
2023-02-23T13:03:25.082Z,41.83
2023-02-23T13:05:58.003Z,41.35
2023-02-23T13:08:32.736Z,38.03
2023-02-23T13:11:07.478Z,40.58
2023-02-23T13:13:40.750Z,40.00
2023-02-23T13:16:13.408Z,39.87
2023-02-23T13:18:47.379Z,45.47
2023-02-23T13:21:20.698Z,45.88
2023-02-23T13:23:56.222Z,45.05
2023-02-23T13:26:30.170Z,44.28
2023-02-23T13:29:01.455Z,46.17
2023-02-23T13:31:33.557Z,45.38
2023-02-23T13:34:03.293Z,46.05
2023-02-23T13:36:33.362Z,50.85
2023-02-23T13:39:29.945Z,53.22
2023-02-23T13:42:10.520Z,55.85
2023-02-23T13:44:40.693Z,53.37
2023-02-23T13:47:19.258Z,56.00
2023-02-23T13:49:51.196Z,60.08
2023-02-23T13:52:27.961Z,50.60
2023-02-23T13:54:58.764Z,57.40
2023-02-23T13:57:28.446Z,56.77
2023-02-23T13:59:56.257Z,45.88
2023-02-23T14:02:34.667Z,55.13
2023-02-23T14:05:08.219Z,50.28
2023-02-23T14:07:42.339Z,58.08
2023-02-23T14:10:15.859Z,63.92
2023-02-23T14:12:45.267Z,68.97
2023-02-23T14:15:44.294Z,62.08
2023-02-23T14:18:32.349Z,52.90
2023-02-23T14:21:09.785Z,65.78
2023-02-23T14:23:40.679Z,66.18
2023-02-23T14:26:15.728Z,63.47
2023-02-23T14:28:46.819Z,64.57
2023-02-23T14:31:22.478Z,60.63
2023-02-23T14:33:55.750Z,71.50
2023-02-23T14:36:35.901Z,70.40
2023-02-23T14:39:06.872Z,84.37
2023-02-23T14:41:40.863Z,64.50
2023-02-23T14:44:20.183Z,62.95
2023-02-23T14:46:58.310Z,54.70
2023-02-23T14:49:31.862Z,68.15
2023-02-23T14:52:05.759Z,65.78
2023-02-23T14:54:35.286Z,67.63
2023-02-23T14:57:04.666Z,52.88
2023-02-23T14:59:39.727Z,60.53
2023-02-23T15:02:13.523Z,63.35
2023-02-23T15:04:43.676Z,62.30
2023-02-23T15:07:24.830Z,62.80
2023-02-23T15:09:53.817Z,62.90
2023-02-23T15:12:26.782Z,73.68
2023-02-23T15:14:58.061Z,74.35
2023-02-23T15:17:27.919Z,66.13
2023-02-23T15:20:14.362Z,71.03
2023-02-23T15:22:44.947Z,66.70
2023-02-23T15:25:16.348Z,68.05
2023-02-23T15:27:46.056Z,76.95
2023-02-23T15:30:24.236Z,74.32
2023-02-23T15:33:00.907Z,75.37
2023-02-23T15:35:30.584Z,74.88
2023-02-23T15:38:11.301Z,64.60
2023-02-23T15:40:42.315Z,60.53
2023-02-23T15:43:10.558Z,66.72
2023-02-23T15:45:42.722Z,59.80
2023-02-23T15:48:17.288Z,55.20
2023-02-23T15:50:50.200Z,57.03
2023-02-23T15:53:31.260Z,54.43
2023-02-23T15:56:04.318Z,52.35
2023-02-23T15:58:35.133Z,55.38
2023-02-23T16:01:11.783Z,48.28
2023-02-23T16:03:44.078Z,44.97
2023-02-23T16:06:24.381Z,46.08
2023-02-23T16:08:59.536Z,45.55
2023-02-23T16:11:28.095Z,51.30
2023-02-23T16:13:55.926Z,45.13
2023-02-23T16:16:25.691Z,49.97
2023-02-23T16:18:54.893Z,49.22
2023-02-23T16:21:25.670Z,48.58
2023-02-23T16:23:55.013Z,49.70
2023-02-23T16:26:26.242Z,43.50
2023-02-23T16:28:57.382Z,49.78
2023-02-23T16:31:28.356Z,48.63
2023-02-23T16:33:59.936Z,50.28
2023-02-23T16:36:38.590Z,54.90
2023-02-23T16:39:11.236Z,47.90
2023-02-23T16:41:39.000Z,47.92
2023-02-23T16:44:07.844Z,45.97
2023-02-23T16:46:59.758Z,48.80
2023-02-23T16:49:29.990Z,48.10
2023-02-23T16:51:59.968Z,53.90
2023-02-23T16:54:28.287Z,49.67
2023-02-23T16:56:56.645Z,47.53
2023-02-23T16:59:24.994Z,47.75
2023-02-23T17:01:52.726Z,47.85
2023-02-23T17:04:21.848Z,41.47
2023-02-23T17:06:57.978Z,52.42
2023-02-23T17:09:27.473Z,50.70
2023-02-23T17:11:57.045Z,58.30
2023-02-23T17:14:28.267Z,47.00
2023-02-23T17:16:56.223Z,51.67
2023-02-23T17:19:24.677Z,51.20
2023-02-23T17:21:53.834Z,58.30
2023-02-23T17:24:25.994Z,56.93
2023-02-23T17:26:55.578Z,55.17
2023-02-23T17:29:24.132Z,54.53
2023-02-23T17:31:52.239Z,54.78
2023-02-23T17:34:20.150Z,53.22
2023-02-23T17:36:47.948Z,48.42
2023-02-23T17:39:16.858Z,57.08
2023-02-23T17:41:44.844Z,51.60
2023-02-23T17:44:14.152Z,50.47
2023-02-23T17:46:41.841Z,51.47
2023-02-23T17:49:09.834Z,58.65
2023-02-23T17:51:37.838Z,54.17
2023-02-23T17:54:05.680Z,64.25
2023-02-23T17:56:33.702Z,55.80
2023-02-23T17:59:01.391Z,64.68
2023-02-23T18:01:30.590Z,61.33
2023-02-23T18:03:59.351Z,59.78
2023-02-23T18:06:27.867Z,63.17
2023-02-23T18:08:55.504Z,58.10
2023-02-23T18:11:23.718Z,56.10
2023-02-23T18:13:52.291Z,63.83
2023-02-23T18:16:20.433Z,57.80
2023-02-23T18:18:49.781Z,66.10
2023-02-23T18:21:19.311Z,61.85
2023-02-23T18:23:48.052Z,68.47
2023-02-23T18:26:17.445Z,62.17
2023-02-23T18:28:45.933Z,68.45
2023-02-23T18:31:15.588Z,68.00
2023-02-23T18:33:44.952Z,62.42
2023-02-23T18:36:21.833Z,67.55
2023-02-23T18:38:49.976Z,72.90
2023-02-23T18:41:18.362Z,68.35
2023-02-23T18:43:46.603Z,71.85
2023-02-23T18:46:15.228Z,83.18
2023-02-23T18:48:43.407Z,75.65
2023-02-23T18:51:14.147Z,67.72
2023-02-23T18:53:44.520Z,60.75
2023-02-23T18:56:14.311Z,42.90
2023-02-23T18:58:43.145Z,44.58
2023-02-23T19:01:18.237Z,34.30
2023-02-23T19:03:46.192Z,24.15
2023-02-23T19:06:16.064Z,31.80
2023-02-23T19:08:45.790Z,30.60
2023-02-23T19:11:13.512Z,28.23
2023-02-23T19:13:41.512Z,21.47
2023-02-23T19:16:09.706Z,24.65
2023-02-23T19:18:37.715Z,24.60
2023-02-23T19:21:06.705Z,31.73
2023-02-23T19:23:34.477Z,28.70
2023-02-23T19:26:05.548Z,31.07
2023-02-23T19:28:33.430Z,31.50
2023-02-23T19:31:05.906Z,38.13
2023-02-23T19:33:34.248Z,29.45
2023-02-23T19:36:05.845Z,37.45
2023-02-23T19:38:34.183Z,34.95
2023-02-23T19:41:06.456Z,40.75
2023-02-23T19:43:34.755Z,36.08
2023-02-23T19:46:05.094Z,30.30
2023-02-23T19:48:33.158Z,35.53
2023-02-23T19:51:00.853Z,36.80
2023-02-23T19:53:29.553Z,33.50
2023-02-23T19:56:01.585Z,35.42
2023-02-23T19:58:30.614Z,21.90
2023-02-23T20:00:58.453Z,35.30
2023-02-23T20:03:28.556Z,23.47
2023-02-23T20:05:56.929Z,30.48
2023-02-23T20:08:25.251Z,28.87
2023-02-23T20:10:53.507Z,29.25
2023-02-23T20:13:23.576Z,23.95
2023-02-23T20:16:01.425Z,21.48
2023-02-23T20:18:29.391Z,27.10
2023-02-23T20:20:57.316Z,28.90
2023-02-23T20:23:25.267Z,21.67
2023-02-23T20:25:52.966Z,24.63
2023-02-23T20:28:20.622Z,26.45
2023-02-23T20:30:49.020Z,22.35
2023-02-23T20:33:18.283Z,31.10
2023-02-23T20:35:45.994Z,32.75
2023-02-23T20:38:15.436Z,23.98
2023-02-23T20:40:43.139Z,25.60
2023-02-23T20:43:10.824Z,29.25
2023-02-23T20:45:41.317Z,36.33
2023-02-23T20:48:09.763Z,32.35
2023-02-23T20:50:39.453Z,39.72
2023-02-23T20:53:08.467Z,31.10
2023-02-23T20:55:36.390Z,35.83
2023-02-23T20:58:05.526Z,36.72
2023-02-23T21:00:33.799Z,35.80
2023-02-23T21:03:02.871Z,26.52
2023-02-23T21:05:32.640Z,29.67
2023-02-23T21:08:03.110Z,41.93
2023-02-23T21:10:31.765Z,32.53
2023-02-23T21:12:59.576Z,24.45
2023-02-23T21:15:29.053Z,26.60
2023-02-23T21:17:57.220Z,35.83
2023-02-23T21:20:25.871Z,31.70
2023-02-23T21:22:53.585Z,38.03
2023-02-23T21:25:25.139Z,24.65
2023-02-23T21:27:54.179Z,47.43
2023-02-23T21:30:24.105Z,37.65
2023-02-23T21:32:53.856Z,34.70
2023-02-23T21:35:21.945Z,35.60
2023-02-23T21:37:51.705Z,43.17
2023-02-23T21:40:20.766Z,32.92
2023-02-23T21:42:50.893Z,30.95
2023-02-23T21:45:19.238Z,44.83
2023-02-23T21:47:48.275Z,43.90
2023-02-23T21:50:17.964Z,35.33
2023-02-23T21:52:48.578Z,35.13
2023-02-23T21:55:24.644Z,34.33
2023-02-23T21:57:54.867Z,42.50
2023-02-23T22:00:23.068Z,38.15
2023-02-23T22:02:51.209Z,51.78
2023-02-23T22:05:19.808Z,38.15
2023-02-23T22:07:52.261Z,41.17
2023-02-23T22:10:21.393Z,36.97
2023-02-23T22:12:50.186Z,46.08
2023-02-23T22:15:19.654Z,40.25
2023-02-23T22:17:47.312Z,44.17
2023-02-23T22:20:15.443Z,48.03
2023-02-23T22:22:43.713Z,38.55
2023-02-23T22:25:11.866Z,37.28
2023-02-23T22:27:41.637Z,37.90
2023-02-23T22:30:12.139Z,39.03
2023-02-23T22:32:42.669Z,37.47
2023-02-23T22:35:11.113Z,33.72
2023-02-23T22:37:39.873Z,41.15
2023-02-23T22:43:08.906Z,47.57
2023-02-23T22:45:36.795Z,44.80
2023-02-23T22:48:07.412Z,41.13
2023-02-23T22:50:36.524Z,46.65
2023-02-23T22:53:05.892Z,52.87
2023-02-23T22:55:35.017Z,39.00
2023-02-23T22:58:08.365Z,38.60
2023-02-23T23:00:36.197Z,46.63
2023-02-23T23:03:05.946Z,44.33
2023-02-23T23:05:34.097Z,47.45
2023-02-23T23:08:01.807Z,37.08
2023-02-23T23:10:30.149Z,45.57
2023-02-23T23:12:59.248Z,35.72
2023-02-23T23:15:27.093Z,42.28
2023-02-23T23:17:55.035Z,38.53
2023-02-23T23:20:25.800Z,35.97
2023-02-23T23:22:53.986Z,51.80
2023-02-23T23:25:23.833Z,36.17
2023-02-23T23:27:53.840Z,44.53
2023-02-23T23:30:26.017Z,39.50
2023-02-23T23:32:54.404Z,38.65
2023-02-23T23:35:23.002Z,36.00
2023-02-23T23:37:52.626Z,55.38
2023-02-23T23:40:24.702Z,42.58
2023-02-23T23:42:53.243Z,37.45
2023-02-23T23:45:24.462Z,42.90
2023-02-23T23:47:52.253Z,44.73
2023-02-23T23:50:26.536Z,34.03
2023-02-23T23:52:57.079Z,43.50
2023-02-23T23:55:24.916Z,32.45
2023-02-23T23:57:52.734Z,40.35
